Terminal Aerodrome Forecast
Issued by NWS

Home | Current Version | Previous Version | Graphics & Text | Print | Product List | Glossary On
Versions: 1 2 3 4 5 6 7 8 9 10 11 12 13 14 15 16
000
FTUS42 KMHX 271121
TAFPGV
TAF
KPGV 271121Z 2712/2812 21006KT P6SM SCT010 BKN070
     FM271600 02012G18KT 3SM -RA BR OVC007
     FM280200 36008KT P6SM OVC015
     FM281000 01006KT P6SM OVC040
      AMD LTD TO CLD VIS AND WIND=

USA.gov is the U.S. government's official web portal to all federal, state and local government web resources and services.